DKR weather

Léopold Sédar Senghor International Airport
Dakar, Dakar Region, Senegal

Public forecast

Using degrees Celsius for public forecast. Weather courtesy of forecast.io.

METAR (pilot weather report)

Retrieved 2018/11/16 09:00 UTC (49 minutes ago):

GOOY 160900Z 36012KT CAVOK 23/19 Q1014

TAF (pilot weather forecast)

Retrieved 2018/11/16 06:21 UTC (3 hours ago):

TAF GOOY 160530Z 1606/1712 36012KT 8000 NSC